Time;durP1;ratioP1;P1;durP2;ratioP2;P2;SDS_P1;SDS_P2;PMS_P1;PMS_P2;Temp;Humidity;BMP_temperature;BMP_pressure;BME280_temperature;BME280_humidity;BME280_pressure;Samples;Min_cycle;Max_cycle;Signal;HPM_P1;HPM_P2
2022/07/05 00:00:36;;;;;;;4.90;2.50;;;;;;;;;;5040824;28;20495;-74
2022/07/05 00:03:03;;;;;;;4.50;2.88;;;;;;;;;;5042397;28;20041;-74
2022/07/05 00:05:29;;;;;;;9.10;3.97;;;;;;;;;;5038164;28;20049;-74
2022/07/05 00:07:55;;;;;;;6.30;2.85;;;;;;;;;;5024263;28;20454;-74
2022/07/05 00:10:21;;;;;;;6.10;2.70;;;;;;;;;;5040751;28;20563;-74
2022/07/05 00:12:47;;;;;;;4.63;2.70;;;;;;;;;;5044215;28;20087;-75
2022/07/05 00:15:13;;;;;;;5.25;3.00;;;;;;;;;;5039012;28;20399;-74
2022/07/05 00:17:39;;;;;;;4.28;2.85;;;;;;;;;;5037032;28;20061;-75
2022/07/05 00:20:05;;;;;;;6.38;3.70;;;;;;;;;;5022220;28;20055;-74
2022/07/05 00:22:31;;;;;;;5.35;3.10;;;;;;;;;;5040030;28;20045;-74
2022/07/05 00:24:57;;;;;;;27.15;9.32;;;;;;;;;;5030422;28;20399;-75
2022/07/05 00:27:23;;;;;;;8.52;3.78;;;;;;;;;;5026833;28;20080;-75
2022/07/05 00:29:49;;;;;;;12.18;4.10;;;;;;;;;;5018153;28;20044;-75
2022/07/05 00:32:15;;;;;;;8.13;3.70;;;;;;;;;;5040733;28;20052;-75
2022/07/05 00:34:41;;;;;;;9.88;3.60;;;;;;;;;;5036108;28;20045;-75
2022/07/05 00:37:07;;;;;;;12.82;3.80;;;;;;;;;;5038575;28;20045;-75
2022/07/05 00:39:33;;;;;;;10.20;3.58;;;;;;;;;;5018560;28;20381;-75
2022/07/05 00:42:00;;;;;;;13.48;5.00;;;;;;;;;;5022427;28;20102;-75
2022/07/05 00:44:35;;;;;;;8.13;4.05;;;;;;;;;;5041369;28;20049;-75
2022/07/05 00:47:01;;;;;;;8.82;3.28;;;;;;;;;;5022822;28;20045;-75
2022/07/05 00:49:27;;;;;;;5.28;3.63;;;;;;;;;;5042166;28;20447;-75
2022/07/05 00:51:53;;;;;;;7.50;3.72;;;;;;;;;;5040584;28;20048;-75
2022/07/05 00:54:19;;;;;;;4.35;3.33;;;;;;;;;;5045374;28;20120;-75
2022/07/05 00:56:45;;;;;;;36.15;9.40;;;;;;;;;;5043074;28;20124;-76
2022/07/05 00:59:11;;;;;;;8.90;4.40;;;;;;;;;;5010418;28;20051;-74
2022/07/05 01:01:37;;;;;;;6.45;4.20;;;;;;;;;;5046514;28;20478;-75
2022/07/05 01:04:03;;;;;;;6.20;3.97;;;;;;;;;;5033822;28;20095;-75
2022/07/05 01:06:29;;;;;;;11.07;4.20;;;;;;;;;;5051013;28;20098;-75
2022/07/05 01:08:55;;;;;;;8.57;4.15;;;;;;;;;;5022773;28;20438;-75
2022/07/05 01:11:21;;;;;;;11.95;5.38;;;;;;;;;;5022384;28;20038;-75
2022/07/05 01:13:47;;;;;;;7.32;3.83;;;;;;;;;;5007056;28;20037;-75
2022/07/05 01:16:13;;;;;;;8.88;5.10;;;;;;;;;;5029547;28;20055;-75
2022/07/05 01:18:39;;;;;;;13.00;5.60;;;;;;;;;;5027806;28;20045;-75
2022/07/05 01:21:06;;;;;;;7.57;4.53;;;;;;;;;;5042247;28;20405;-75
2022/07/05 01:23:32;;;;;;;6.43;5.80;;;;;;;;;;5043685;28;20044;-75
2022/07/05 01:26:00;;;;;;;7.10;5.05;;;;;;;;;;5046911;28;20047;-75
2022/07/05 01:28:26;;;;;;;9.98;6.10;;;;;;;;;;5038684;28;20095;-75
2022/07/05 01:30:52;;;;;;;11.25;5.20;;;;;;;;;;5022622;28;20054;-75
2022/07/05 01:33:18;;;;;;;15.15;5.85;;;;;;;;;;5021553;28;20052;-75
2022/07/05 01:35:45;;;;;;;8.65;5.38;;;;;;;;;;5037692;28;20049;-75
2022/07/05 01:38:11;;;;;;;14.82;6.35;;;;;;;;;;5017808;28;20045;-75
2022/07/05 01:40:38;;;;;;;12.77;6.40;;;;;;;;;;5039158;28;20049;-75
2022/07/05 01:43:07;;;;;;;8.73;5.65;;;;;;;;;;5025393;28;20052;-75
2022/07/05 01:45:39;;;;;;;8.48;5.85;;;;;;;;;;5040657;28;20139;-75
2022/07/05 01:48:15;;;;;;;11.50;6.85;;;;;;;;;;5038322;28;20037;-76
2022/07/05 01:50:41;;;;;;;10.38;6.28;;;;;;;;;;5052725;28;20539;-75
2022/07/05 01:53:09;;;;;;;18.55;8.63;;;;;;;;;;5044811;28;20132;-75
2022/07/05 01:55:35;;;;;;;12.18;6.82;;;;;;;;;;5048635;28;20559;-75
2022/07/05 01:58:01;;;;;;;17.35;7.20;;;;;;;;;;5045665;28;20084;-75
2022/07/05 02:00:27;;;;;;;12.65;7.20;;;;;;;;;;5041932;28;20041;-75
2022/07/05 02:02:54;;;;;;;12.30;6.93;;;;;;;;;;5041968;28;20505;-75
2022/07/05 02:05:20;;;;;;;16.60;7.72;;;;;;;;;;5039928;28;20148;-75
2022/07/05 02:07:47;;;;;;;10.70;6.78;;;;;;;;;;5045253;28;20083;-75
2022/07/05 02:10:13;;;;;;;10.77;6.45;;;;;;;;;;5048633;28;20052;-75
2022/07/05 02:12:39;;;;;;;9.63;5.95;;;;;;;;;;5038542;28;20052;-75
2022/07/05 02:15:06;;;;;;;10.35;6.38;;;;;;;;;;5042279;28;20492;-75
2022/07/05 02:17:32;;;;;;;12.05;6.10;;;;;;;;;;5049161;28;20037;-74
2022/07/05 02:19:58;;;;;;;14.13;6.30;;;;;;;;;;5037898;28;20041;-76
2022/07/05 02:22:24;;;;;;;10.57;6.43;;;;;;;;;;5048925;28;20205;-74
2022/07/05 02:24:50;;;;;;;12.18;6.28;;;;;;;;;;5027716;28;20072;-75
2022/07/05 02:27:16;;;;;;;7.25;5.40;;;;;;;;;;5023101;28;20045;-74
2022/07/05 02:29:42;;;;;;;8.80;5.95;;;;;;;;;;5038264;28;20048;-75
2022/07/05 02:32:08;;;;;;;9.55;6.55;;;;;;;;;;5019019;28;20045;-75
2022/07/05 02:34:34;;;;;;;8.25;5.65;;;;;;;;;;5046091;28;20080;-74
2022/07/05 02:37:00;;;;;;;10.50;6.40;;;;;;;;;;5042265;28;20045;-75
2022/07/05 02:39:26;;;;;;;12.00;7.03;;;;;;;;;;5044077;28;20041;-75
2022/07/05 02:41:52;;;;;;;13.07;7.97;;;;;;;;;;5042221;28;20056;-75
2022/07/05 02:44:18;;;;;;;13.07;7.43;;;;;;;;;;5025662;28;20045;-75
2022/07/05 02:46:44;;;;;;;18.25;8.13;;;;;;;;;;5042815;28;20191;-75
2022/07/05 02:49:10;;;;;;;24.60;9.38;;;;;;;;;;5040862;28;20041;-75
2022/07/05 02:51:36;;;;;;;15.55;7.93;;;;;;;;;;5030417;28;20503;-75
2022/07/05 02:54:02;;;;;;;13.10;7.88;;;;;;;;;;5020133;28;20095;-75
2022/07/05 02:56:28;;;;;;;11.40;6.88;;;;;;;;;;5040787;28;20053;-75
2022/07/05 02:58:54;;;;;;;16.52;7.90;;;;;;;;;;5039668;28;20394;-75
2022/07/05 03:01:20;;;;;;;30.45;11.65;;;;;;;;;;5038347;28;20080;-75
2022/07/05 03:03:46;;;;;;;18.33;9.43;;;;;;;;;;5045330;28;20045;-75
2022/07/05 03:06:12;;;;;;;23.52;9.88;;;;;;;;;;5041796;28;20092;-75
2022/07/05 03:08:38;;;;;;;20.63;8.52;;;;;;;;;;5037829;28;20038;-76
2022/07/05 03:11:04;;;;;;;24.50;10.32;;;;;;;;;;5040009;28;20057;-75
2022/07/05 03:13:30;;;;;;;19.52;10.30;;;;;;;;;;5042766;28;20042;-75
2022/07/05 03:15:56;;;;;;;25.98;10.95;;;;;;;;;;5042007;28;20489;-75
2022/07/05 03:18:22;;;;;;;17.50;9.63;;;;;;;;;;5037296;28;20186;-75
2022/07/05 03:20:48;;;;;;;22.63;10.48;;;;;;;;;;5045316;28;20128;-75
2022/07/05 03:23:14;;;;;;;36.97;12.52;;;;;;;;;;5040563;28;20129;-75
2022/07/05 03:25:40;;;;;;;26.48;10.90;;;;;;;;;;5040938;28;20043;-75
2022/07/05 03:28:06;;;;;;;26.23;11.13;;;;;;;;;;5044274;28;20408;-75
2022/07/05 03:30:32;;;;;;;23.92;10.57;;;;;;;;;;5037705;28;20045;-75
2022/07/05 03:32:58;;;;;;;32.95;12.23;;;;;;;;;;5041321;28;20045;-75
2022/07/05 03:35:24;;;;;;;35.85;14.57;;;;;;;;;;5045248;28;20072;-75
2022/07/05 03:37:50;;;;;;;34.65;13.32;;;;;;;;;;5021967;28;20045;-75
2022/07/05 03:40:16;;;;;;;33.88;13.23;;;;;;;;;;5043055;28;20483;-75
2022/07/05 03:42:42;;;;;;;27.40;13.55;;;;;;;;;;5038389;28;20516;-74
2022/07/05 03:45:09;;;;;;;20.60;10.90;;;;;;;;;;5037004;28;20042;-75
2022/07/05 03:47:35;;;;;;;29.63;11.73;;;;;;;;;;5023096;28;20548;-75
2022/07/05 03:50:01;;;;;;;26.63;10.45;;;;;;;;;;5039194;28;20128;-75
2022/07/05 03:52:27;;;;;;;21.60;12.88;;;;;;;;;;5041733;28;20041;-75
2022/07/05 03:54:53;;;;;;;27.92;12.23;;;;;;;;;;5040609;28;20081;-75
2022/07/05 03:57:19;;;;;;;21.33;11.32;;;;;;;;;;5039184;28;20053;-75
2022/07/05 03:59:45;;;;;;;18.05;10.68;;;;;;;;;;5041296;28;20123;-75
2022/07/05 04:02:11;;;;;;;25.27;11.05;;;;;;;;;;5035748;28;20084;-76
2022/07/05 04:04:37;;;;;;;72.50;22.40;;;;;;;;;;5040075;28;20522;-75
2022/07/05 04:07:03;;;;;;;45.67;16.45;;;;;;;;;;5020175;28;20083;-75
2022/07/05 04:09:29;;;;;;;48.60;15.80;;;;;;;;;;5048691;28;20045;-76
2022/07/05 04:11:55;;;;;;;40.53;19.90;;;;;;;;;;5025458;28;20132;-75
2022/07/05 04:14:21;;;;;;;53.17;20.90;;;;;;;;;;5040244;28;20045;-76
2022/07/05 04:16:47;;;;;;;31.20;16.75;;;;;;;;;;5032495;28;20060;-75
2022/07/05 04:19:13;;;;;;;39.95;19.13;;;;;;;;;;5039075;28;20045;-75
2022/07/05 04:21:39;;;;;;;24.80;17.13;;;;;;;;;;5042176;28;20049;-75
2022/07/05 04:24:05;;;;;;;28.63;15.50;;;;;;;;;;5042254;28;20042;-74
2022/07/05 04:26:31;;;;;;;37.38;18.33;;;;;;;;;;5040956;28;20041;-76
2022/07/05 04:28:57;;;;;;;26.00;13.55;;;;;;;;;;5024033;28;20129;-74
2022/07/05 04:31:23;;;;;;;24.95;15.73;;;;;;;;;;5038456;28;20049;-77
2022/07/05 04:33:50;;;;;;;26.55;19.65;;;;;;;;;;5037767;28;20112;-76
2022/07/05 04:36:16;;;;;;;24.33;15.20;;;;;;;;;;5040246;28;20132;-78
2022/07/05 04:38:42;;;;;;;24.38;13.68;;;;;;;;;;5038528;28;20037;-77
2022/07/05 04:41:08;;;;;;;22.98;13.48;;;;;;;;;;5041772;28;20091;-78
2022/07/05 04:43:34;;;;;;;31.50;16.83;;;;;;;;;;5034264;28;20081;-78
2022/07/05 04:46:00;;;;;;;21.48;14.15;;;;;;;;;;5041073;28;20124;-78
2022/07/05 04:48:26;;;;;;;18.83;14.30;;;;;;;;;;5042890;28;20484;-76
2022/07/05 04:50:53;;;;;;;22.75;14.55;;;;;;;;;;5039594;28;20396;-76
2022/07/05 04:53:19;;;;;;;18.98;14.02;;;;;;;;;;5028657;28;20048;-77
2022/07/05 04:55:45;;;;;;;18.15;13.48;;;;;;;;;;5043140;28;20053;-77
2022/07/05 04:58:11;;;;;;;16.88;12.60;;;;;;;;;;5038788;28;20049;-77
2022/07/05 05:00:37;;;;;;;16.48;12.98;;;;;;;;;;5043015;28;20044;-77
2022/07/05 05:03:03;;;;;;;17.85;12.38;;;;;;;;;;5040632;28;20071;-77
2022/07/05 05:05:29;;;;;;;28.27;14.20;;;;;;;;;;5023586;28;20038;-77
2022/07/05 05:07:55;;;;;;;20.10;13.13;;;;;;;;;;5039591;28;20041;-77
2022/07/05 05:10:21;;;;;;;18.92;12.50;;;;;;;;;;5039119;28;20045;-77
2022/07/05 05:12:48;;;;;;;15.85;12.20;;;;;;;;;;5039483;28;20698;-77
2022/07/05 05:15:14;;;;;;;17.55;13.30;;;;;;;;;;5046311;28;20124;-77
2022/07/05 05:17:41;;;;;;;17.50;11.95;;;;;;;;;;5036315;28;20045;-77
2022/07/05 05:20:10;;;;;;;16.17;11.82;;;;;;;;;;5040189;28;20052;-77
2022/07/05 05:22:36;;;;;;;15.55;12.15;;;;;;;;;;5030979;28;20067;-76
2022/07/05 05:25:02;;;;;;;42.65;16.80;;;;;;;;;;5043279;28;20116;-76
2022/07/05 05:27:28;;;;;;;16.83;12.13;;;;;;;;;;5032223;28;20049;-76
2022/07/05 05:29:54;;;;;;;14.60;11.18;;;;;;;;;;5043114;28;20103;-76
2022/07/05 05:32:20;;;;;;;16.88;11.43;;;;;;;;;;5044734;28;20515;-76
2022/07/05 05:34:46;;;;;;;15.77;11.02;;;;;;;;;;5038406;28;20041;-76
2022/07/05 05:37:12;;;;;;;48.35;17.55;;;;;;;;;;5029632;28;20464;-76
2022/07/05 05:39:39;;;;;;;28.95;15.63;;;;;;;;;;5040384;28;20081;-77
2022/07/05 05:42:05;;;;;;;15.85;10.60;;;;;;;;;;5017467;28;20053;-76
2022/07/05 05:44:31;;;;;;;11.63;10.40;;;;;;;;;;5019356;28;20049;-77
2022/07/05 05:46:57;;;;;;;12.80;10.05;;;;;;;;;;5022162;28;20046;-76
2022/07/05 05:49:23;;;;;;;17.30;10.77;;;;;;;;;;5020917;23;20041;-70
2022/07/05 05:51:49;;;;;;;14.63;11.00;;;;;;;;;;5001080;28;20053;-70
2022/07/05 05:54:15;;;;;;;13.85;10.07;;;;;;;;;;5024122;28;20048;-69
2022/07/05 05:56:41;;;;;;;11.50;9.40;;;;;;;;;;5024322;28;20045;-70
2022/07/05 05:59:08;;;;;;;14.52;9.88;;;;;;;;;;5024262;28;20402;-69
2022/07/05 06:01:34;;;;;;;13.70;9.68;;;;;;;;;;5007594;28;20060;-70
2022/07/05 06:04:00;;;;;;;13.38;9.75;;;;;;;;;;5005909;28;20108;-70
2022/07/05 06:06:26;;;;;;;20.60;10.40;;;;;;;;;;5001167;28;20081;-70
2022/07/05 06:08:52;;;;;;;9.75;8.50;;;;;;;;;;5015145;28;20124;-70
2022/07/05 06:11:18;;;;;;;10.52;8.57;;;;;;;;;;5016573;28;20713;-70
2022/07/05 06:13:44;;;;;;;11.95;8.50;;;;;;;;;;5020138;28;20076;-70
2022/07/05 06:16:10;;;;;;;16.27;9.07;;;;;;;;;;5007799;28;20121;-71
2022/07/05 06:18:37;;;;;;;11.45;8.45;;;;;;;;;;5024729;28;20065;-71
2022/07/05 06:21:03;;;;;;;35.08;13.23;;;;;;;;;;5003876;28;20091;-71
2022/07/05 06:23:29;;;;;;;16.33;8.27;;;;;;;;;;5023565;28;20486;-70
2022/07/05 06:25:55;;;;;;;11.70;7.45;;;;;;;;;;5007657;28;20445;-70
2022/07/05 06:28:21;;;;;;;8.55;7.03;;;;;;;;;;5013378;28;20076;-70
2022/07/05 06:30:47;;;;;;;9.75;7.07;;;;;;;;;;4991554;28;20057;-70
2022/07/05 06:33:13;;;;;;;6.78;6.07;;;;;;;;;;4996164;28;20056;-70
2022/07/05 06:35:39;;;;;;;6.70;5.85;;;;;;;;;;5022330;28;20372;-70
2022/07/05 06:38:06;;;;;;;10.90;6.40;;;;;;;;;;5004465;28;20604;-69
2022/07/05 06:40:33;;;;;;;11.55;6.20;;;;;;;;;;5030123;28;20041;-70
2022/07/05 06:43:01;;;;;;;6.82;5.10;;;;;;;;;;5006776;28;20579;-69
2022/07/05 06:45:27;;;;;;;7.10;4.65;;;;;;;;;;5022381;28;20355;-70
2022/07/05 06:48:00;;;;;;;7.53;4.40;;;;;;;;;;5018049;28;20101;-70
2022/07/05 06:50:27;;;;;;;6.45;3.90;;;;;;;;;;5003731;28;20508;-70
2022/07/05 06:52:53;;;;;;;6.57;3.63;;;;;;;;;;5018939;28;20077;-70
2022/07/05 06:55:19;;;;;;;5.38;3.47;;;;;;;;;;5002275;28;20129;-71
2022/07/05 06:57:45;;;;;;;8.15;4.22;;;;;;;;;;5008013;28;20140;-70
2022/07/05 07:00:12;;;;;;;15.90;6.35;;;;;;;;;;5003673;28;20050;-70
2022/07/05 07:02:38;;;;;;;4.60;3.17;;;;;;;;;;5018655;28;20037;-70
2022/07/05 07:05:04;;;;;;;8.30;3.90;;;;;;;;;;5000071;28;20501;-70
2022/07/05 07:10:21;;;;;;;6.03;3.45;;;;;;;;;;5018331;28;20680;-70
2022/07/05 07:12:47;;;;;;;4.20;2.72;;;;;;;;;;5013954;28;20057;-70
2022/07/05 07:15:13;;;;;;;5.72;2.75;;;;;;;;;;4999854;28;20140;-70
2022/07/05 07:17:39;;;;;;;5.78;2.55;;;;;;;;;;5022900;28;20042;-70
2022/07/05 07:20:05;;;;;;;15.73;5.35;;;;;;;;;;5018489;28;20096;-70
2022/07/05 07:22:31;;;;;;;3.30;2.30;;;;;;;;;;4997614;28;20052;-70
2022/07/05 07:24:57;;;;;;;5.72;2.88;;;;;;;;;;5006307;28;20049;-70
2022/07/05 07:27:23;;;;;;;5.68;3.20;;;;;;;;;;5002202;28;20499;-70
2022/07/05 07:29:49;;;;;;;6.20;3.13;;;;;;;;;;5021587;28;20049;-70
2022/07/05 07:32:15;;;;;;;6.32;3.35;;;;;;;;;;5004245;28;20045;-70
2022/07/05 07:34:41;;;;;;;3.28;2.28;;;;;;;;;;4994886;28;20051;-70
2022/07/05 07:37:08;;;;;;;6.00;2.60;;;;;;;;;;5021103;28;20045;-69
2022/07/05 07:39:35;;;;;;;5.50;2.90;;;;;;;;;;5001202;28;20122;-70
2022/07/05 07:42:01;;;;;;;5.90;3.08;;;;;;;;;;5007957;28;20111;-70
2022/07/05 07:44:27;;;;;;;5.00;3.35;;;;;;;;;;5025498;28;20428;-70
2022/07/05 07:46:53;;;;;;;9.10;2.58;;;;;;;;;;5027704;28;20042;-70
2022/07/05 07:49:19;;;;;;;4.43;2.20;;;;;;;;;;5026081;28;20054;-70
2022/07/05 07:51:45;;;;;;;3.63;2.20;;;;;;;;;;5026553;28;20460;-70
2022/07/05 07:54:11;;;;;;;2.83;1.60;;;;;;;;;;5027835;28;20041;-70
2022/07/05 07:56:37;;;;;;;2.60;1.52;;;;;;;;;;5026888;28;20095;-70
2022/07/05 07:59:03;;;;;;;5.47;1.92;;;;;;;;;;5028424;28;20843;-70
2022/07/05 08:01:31;;;;;;;5.68;1.77;;;;;;;;;;5009025;28;20379;-70
2022/07/05 08:03:57;;;;;;;4.78;2.10;;;;;;;;;;5010556;28;20065;-69
2022/07/05 08:06:23;;;;;;;3.45;1.48;;;;;;;;;;5008444;28;20128;-70
2022/07/05 08:08:49;;;;;;;2.45;1.30;;;;;;;;;;5010221;28;20124;-71
2022/07/05 08:11:15;;;;;;;4.60;1.50;;;;;;;;;;5024866;28;20475;-69
2022/07/05 08:13:42;;;;;;;3.35;1.48;;;;;;;;;;5025336;28;20038;-69
2022/07/05 08:16:09;;;;;;;2.33;1.23;;;;;;;;;;5026771;28;20052;-71
2022/07/05 08:21:32;;;;;;;3.65;1.77;;;;;;;;;;5026075;28;20045;-70
2022/07/05 08:23:58;;;;;;;2.30;1.30;;;;;;;;;;5007607;28;20064;-70
2022/07/05 08:26:24;;;;;;;7.90;1.30;;;;;;;;;;5023437;28;20057;-69
2022/07/05 08:28:50;;;;;;;9.02;2.33;;;;;;;;;;5007391;28;20049;-70
2022/07/05 08:31:16;;;;;;;3.65;1.10;;;;;;;;;;5009085;28;20041;-71
2022/07/05 08:33:42;;;;;;;4.03;1.38;;;;;;;;;;5023468;28;20048;-70
2022/07/05 08:36:09;;;;;;;1.52;0.98;;;;;;;;;;5010125;28;20049;-71
2022/07/05 08:38:35;;;;;;;4.53;1.48;;;;;;;;;;4990530;28;20046;-71
2022/07/05 08:41:01;;;;;;;1.52;1.10;;;;;;;;;;5026434;28;20038;-70
2022/07/05 08:43:28;;;;;;;2.50;1.10;;;;;;;;;;5026799;28;20069;-71
2022/07/05 08:45:55;;;;;;;2.95;0.85;;;;;;;;;;5024827;28;20046;-71
2022/07/05 08:48:21;;;;;;;5.63;1.60;;;;;;;;;;5009480;28;20265;-69
2022/07/05 08:50:50;;;;;;;5.43;1.00;;;;;;;;;;5005235;28;20131;-70
2022/07/05 08:53:18;;;;;;;2.42;0.85;;;;;;;;;;5008091;28;20033;-71
2022/07/05 08:55:44;;;;;;;10.82;1.90;;;;;;;;;;5006543;28;20049;-70
2022/07/05 08:58:10;;;;;;;4.85;1.40;;;;;;;;;;4997904;28;20045;-71
2022/07/05 09:00:37;;;;;;;7.38;2.17;;;;;;;;;;4994485;28;20494;-71
2022/07/05 09:03:03;;;;;;;7.88;2.20;;;;;;;;;;5019671;28;20395;-71
2022/07/05 09:05:31;;;;;;;3.38;1.20;;;;;;;;;;5011953;28;20525;-71
2022/07/05 09:08:01;;;;;;;4.30;1.50;;;;;;;;;;5001874;28;20053;-71
2022/07/05 09:10:29;;;;;;;2.85;1.20;;;;;;;;;;5023389;28;20045;-71
2022/07/05 09:12:55;;;;;;;5.15;1.77;;;;;;;;;;5007753;28;20052;-70
2022/07/05 09:15:22;;;;;;;6.13;1.80;;;;;;;;;;4999323;28;20076;-71
2022/07/05 09:17:48;;;;;;;1.58;0.70;;;;;;;;;;5001031;28;20398;-70
2022/07/05 09:20:15;;;;;;;2.72;1.00;;;;;;;;;;5011427;28;20073;-70
2022/07/05 09:22:44;;;;;;;4.95;1.08;;;;;;;;;;5026841;28;20057;-71
2022/07/05 09:25:14;;;;;;;3.83;0.90;;;;;;;;;;5006177;28;20045;-71
2022/07/05 09:27:49;;;;;;;2.40;1.00;;;;;;;;;;5025238;28;20052;-72
2022/07/05 09:30:24;;;;;;;2.65;1.00;;;;;;;;;;5005739;28;20069;-71
2022/07/05 09:33:01;;;;;;;3.33;1.00;;;;;;;;;;5006566;28;20387;-71
2022/07/05 09:35:28;;;;;;;2.97;0.98;;;;;;;;;;5022469;28;20222;-71
2022/07/05 09:37:54;;;;;;;7.60;2.40;;;;;;;;;;5002550;28;20446;-71
2022/07/05 09:40:20;;;;;;;2.58;1.05;;;;;;;;;;5020810;28;20108;-71
2022/07/05 09:42:46;;;;;;;5.00;1.60;;;;;;;;;;5024687;28;20053;-69
2022/07/05 09:45:13;;;;;;;6.78;1.15;;;;;;;;;;5009994;28;20573;-70
2022/07/05 09:47:39;;;;;;;3.80;1.10;;;;;;;;;;5007879;28;20060;-69
2022/07/05 09:50:06;;;;;;;2.78;1.00;;;;;;;;;;5003315;28;20241;-69
2022/07/05 09:52:33;;;;;;;3.45;1.08;;;;;;;;;;5007661;28;20221;-69
2022/07/05 09:55:09;;;;;;;4.38;1.20;;;;;;;;;;5006937;28;20053;-70
2022/07/05 09:57:36;;;;;;;3.58;1.20;;;;;;;;;;5007286;28;20088;-70
2022/07/05 10:00:06;;;;;;;2.05;1.20;;;;;;;;;;5025662;28;20136;-69
2022/07/05 10:02:39;;;;;;;1.77;1.05;;;;;;;;;;4992754;28;20516;-70
2022/07/05 10:05:08;;;;;;;4.22;0.90;;;;;;;;;;5025047;28;20298;-70
2022/07/05 10:07:36;;;;;;;2.80;0.90;;;;;;;;;;5030018;28;20063;-70
2022/07/05 10:10:03;;;;;;;2.83;1.20;;;;;;;;;;5027386;28;20053;-70
2022/07/05 10:12:30;;;;;;;2.97;1.02;;;;;;;;;;5011596;28;20063;-70
2022/07/05 10:14:58;;;;;;;1.83;0.82;;;;;;;;;;5012181;28;20050;-70
2022/07/05 10:17:24;;;;;;;4.23;1.33;;;;;;;;;;5028847;28;20041;-70
2022/07/05 10:19:51;;;;;;;2.95;1.05;;;;;;;;;;5014056;28;20067;-70
2022/07/05 10:22:17;;;;;;;3.67;0.98;;;;;;;;;;5027649;28;20038;-70
2022/07/05 10:24:45;;;;;;;4.45;1.20;;;;;;;;;;5010916;28;20057;-69
2022/07/05 10:27:11;;;;;;;1.27;1.00;;;;;;;;;;5029822;28;20083;-71
2022/07/05 10:29:37;;;;;;;3.63;1.00;;;;;;;;;;5009536;28;20116;-69
2022/07/05 10:32:04;;;;;;;3.10;1.17;;;;;;;;;;4997822;28;20054;-71
2022/07/05 10:34:32;;;;;;;15.13;1.52;;;;;;;;;;5004830;28;20525;-71
2022/07/05 10:36:58;;;;;;;2.92;1.00;;;;;;;;;;4989746;28;20052;-70
2022/07/05 10:39:25;;;;;;;3.17;1.00;;;;;;;;;;5003191;28;20042;-71
2022/07/05 10:41:52;;;;;;;3.78;1.05;;;;;;;;;;5018949;28;20392;-72
2022/07/05 10:44:31;;;;;;;5.40;1.52;;;;;;;;;;5000930;28;20034;-71
2022/07/05 10:47:10;;;;;;;4.05;1.10;;;;;;;;;;4996013;28;20103;-71
2022/07/05 10:49:37;;;;;;;5.28;1.63;;;;;;;;;;5003067;28;20061;-72
2022/07/05 10:52:03;;;;;;;2.80;0.98;;;;;;;;;;5023207;28;20179;-71
2022/07/05 10:54:29;;;;;;;2.58;0.82;;;;;;;;;;5002950;28;20041;-71
2022/07/05 10:57:14;;;;;;;3.03;1.20;;;;;;;;;;5011795;28;20048;-71
2022/07/05 11:00:05;;;;;;;14.77;2.90;;;;;;;;;;5020537;28;20045;-71
2022/07/05 11:02:31;;;;;;;2.10;0.95;;;;;;;;;;5026896;28;20072;-71
2022/07/05 11:04:57;;;;;;;2.33;0.93;;;;;;;;;;5002581;28;20050;-71
2022/07/05 11:07:42;;;;;;;4.82;1.20;;;;;;;;;;5016843;28;20050;-71
2022/07/05 11:10:08;;;;;;;8.88;1.73;;;;;;;;;;5010049;28;20048;-71
2022/07/05 11:12:37;;;;;;;4.47;1.25;;;;;;;;;;5012715;28;20042;-71
2022/07/05 11:15:08;;;;;;;3.65;1.40;;;;;;;;;;4991161;28;20049;-70
2022/07/05 11:17:36;;;;;;;5.18;1.35;;;;;;;;;;5026166;28;20038;-70
2022/07/05 11:20:02;;;;;;;1.35;0.90;;;;;;;;;;5007716;28;20057;-71
2022/07/05 11:22:28;;;;;;;3.30;1.05;;;;;;;;;;4995192;28;20037;-71
2022/07/05 11:24:55;;;;;;;2.97;0.88;;;;;;;;;;5026951;28;20120;-70
2022/07/05 11:27:21;;;;;;;2.95;1.10;;;;;;;;;;5023209;28;20060;-71
2022/07/05 11:29:50;;;;;;;4.63;1.30;;;;;;;;;;5009818;28;20045;-71
2022/07/05 11:32:24;;;;;;;7.05;1.15;;;;;;;;;;5011325;28;20061;-71
2022/07/05 11:34:52;;;;;;;3.22;0.93;;;;;;;;;;5019279;28;20622;-71
2022/07/05 11:37:28;;;;;;;7.60;1.83;;;;;;;;;;4996808;28;20081;-70
2022/07/05 11:42:37;;;;;;;3.70;1.10;;;;;;;;;;5003044;28;20516;-71
2022/07/05 11:45:04;;;;;;;3.45;1.20;;;;;;;;;;5008344;28;20056;-71
2022/07/05 11:47:31;;;;;;;9.07;2.22;;;;;;;;;;5019043;28;20056;-71
2022/07/05 11:49:57;;;;;;;11.52;2.58;;;;;;;;;;5015931;28;20056;-71
2022/07/05 11:52:27;;;;;;;5.93;1.38;;;;;;;;;;4999887;28;20065;-71
2022/07/05 11:54:53;;;;;;;3.40;1.17;;;;;;;;;;5022860;28;20053;-71
2022/07/05 11:57:20;;;;;;;4.32;1.38;;;;;;;;;;4999080;28;20577;-71
2022/07/05 11:59:47;;;;;;;3.60;1.40;;;;;;;;;;5018799;28;20053;-71
2022/07/05 12:02:13;;;;;;;5.20;1.40;;;;;;;;;;5016949;28;20566;-71
2022/07/05 12:04:39;;;;;;;6.30;1.77;;;;;;;;;;5005105;28;20049;-71
2022/07/05 12:07:05;;;;;;;5.30;1.40;;;;;;;;;;5020047;28;20100;-71
2022/07/05 12:15:07;;;;;;;3.05;1.20;;;;;;;;;;5017287;28;20053;-71
2022/07/05 12:17:36;;;;;;;3.67;1.50;;;;;;;;;;5001293;28;20033;-70
2022/07/05 12:20:03;;;;;;;9.73;2.58;;;;;;;;;;5020731;28;20041;-71
2022/07/05 12:22:33;;;;;;;4.25;1.30;;;;;;;;;;5004569;28;20247;-71
2022/07/05 12:25:01;;;;;;;4.07;1.50;;;;;;;;;;5013580;28;20129;-70
2022/07/05 12:27:31;;;;;;;7.13;1.52;;;;;;;;;;5008614;28;20100;-71
2022/07/05 12:29:57;;;;;;;3.33;1.10;;;;;;;;;;5019263;28;20107;-71
2022/07/05 12:32:23;;;;;;;2.30;1.10;;;;;;;;;;5004113;28;20037;-70
2022/07/05 12:34:49;;;;;;;6.55;1.40;;;;;;;;;;5013924;28;20060;-70
2022/07/05 12:37:22;;;;;;;2.35;0.88;;;;;;;;;;5017772;28;20038;-70
2022/07/05 12:39:48;;;;;;;2.75;1.00;;;;;;;;;;5002228;28;20052;-70
2022/07/05 12:42:44;;;;;;;2.35;1.10;;;;;;;;;;5021917;28;20103;-70
2022/07/05 12:45:12;;;;;;;3.60;1.00;;;;;;;;;;4988879;28;20056;-71
2022/07/05 12:47:50;;;;;;;3.13;0.90;;;;;;;;;;5014960;28;20046;-70
2022/07/05 12:50:16;;;;;;;2.95;0.75;;;;;;;;;;5002374;28;20521;-70
2022/07/05 12:53:01;;;;;;;3.33;1.35;;;;;;;;;;5013547;28;20285;-71
2022/07/05 12:58:19;;;;;;;4.38;0.82;;;;;;;;;;5006191;28;20131;-70
2022/07/05 13:00:45;;;;;;;3.10;0.80;;;;;;;;;;5015119;28;20050;-70
2022/07/05 13:03:12;;;;;;;8.77;1.80;;;;;;;;;;5016925;28;20053;-70
2022/07/05 13:05:38;;;;;;;3.78;1.05;;;;;;;;;;5013730;28;20050;-71
2022/07/05 13:08:04;;;;;;;3.13;1.00;;;;;;;;;;5002352;28;20046;-71
2022/07/05 13:10:33;;;;;;;2.63;0.82;;;;;;;;;;5020543;28;20467;-70
2022/07/05 13:12:59;;;;;;;2.58;0.85;;;;;;;;;;5020058;28;20045;-69
2022/07/05 13:15:25;;;;;;;1.13;0.80;;;;;;;;;;5001450;28;20048;-70
2022/07/05 13:17:52;;;;;;;1.75;0.80;;;;;;;;;;5018302;28;20044;-70
2022/07/05 13:20:20;;;;;;;1.77;0.65;;;;;;;;;;5000728;28;20060;-70
2022/07/05 13:22:46;;;;;;;2.35;0.70;;;;;;;;;;5021902;28;20057;-70
2022/07/05 13:25:12;;;;;;;2.83;0.90;;;;;;;;;;5016099;28;20034;-70
2022/07/05 13:27:39;;;;;;;2.38;0.70;;;;;;;;;;5002962;28;20132;-69
2022/07/05 13:30:05;;;;;;;4.43;1.00;;;;;;;;;;5000705;28;20045;-71
2022/07/05 13:32:31;;;;;;;2.15;0.60;;;;;;;;;;4996171;28;20041;-70
2022/07/05 13:34:57;;;;;;;2.75;0.80;;;;;;;;;;4999551;28;20050;-70
2022/07/05 13:37:23;;;;;;;17.92;6.25;;;;;;;;;;5013415;28;20042;-70
2022/07/05 13:39:49;;;;;;;2.80;0.90;;;;;;;;;;5018533;28;20042;-70
2022/07/05 13:42:15;;;;;;;2.53;0.88;;;;;;;;;;5002491;28;20525;-70
2022/07/05 13:44:41;;;;;;;2.97;0.85;;;;;;;;;;5000052;28;20123;-70
2022/07/05 13:47:08;;;;;;;4.82;0.90;;;;;;;;;;5000421;28;20125;-70
2022/07/05 13:49:34;;;;;;;6.28;1.63;;;;;;;;;;4992709;28;20053;-70
2022/07/05 13:52:01;;;;;;;5.38;1.08;;;;;;;;;;5004275;28;20058;-71
2022/07/05 13:54:28;;;;;;;2.67;0.73;;;;;;;;;;4997054;28;20066;-70
2022/07/05 13:56:54;;;;;;;3.58;1.13;;;;;;;;;;5003371;28;20051;-71
2022/07/05 13:59:20;;;;;;;2.13;0.80;;;;;;;;;;5000427;28;20037;-71
2022/07/05 14:01:46;;;;;;;6.35;2.15;;;;;;;;;;5016079;28;20053;-71
2022/07/05 14:04:12;;;;;;;20.65;4.63;;;;;;;;;;4995345;28;20046;-71
2022/07/05 14:06:38;;;;;;;2.58;0.95;;;;;;;;;;4986927;28;20052;-70
2022/07/05 14:09:04;;;;;;;4.75;1.63;;;;;;;;;;5015819;28;20095;-71
2022/07/05 14:11:30;;;;;;;15.82;3.53;;;;;;;;;;5000337;28;20498;-71
2022/07/05 14:13:57;;;;;;;7.35;1.45;;;;;;;;;;5016022;28;20056;-70
2022/07/05 14:16:23;;;;;;;2.42;1.00;;;;;;;;;;5017137;28;20486;-71
2022/07/05 14:18:50;;;;;;;3.20;0.77;;;;;;;;;;4994635;28;20149;-70
2022/07/05 14:21:17;;;;;;;31.70;9.15;;;;;;;;;;5002455;28;20279;-71
2022/07/05 14:23:43;;;;;;;15.10;4.47;;;;;;;;;;5014662;28;20438;-72
2022/07/05 14:26:10;;;;;;;7.20;2.22;;;;;;;;;;5014957;28;20432;-71
2022/07/05 14:28:36;;;;;;;3.08;0.77;;;;;;;;;;5000969;28;20058;-71
2022/07/05 14:31:02;;;;;;;3.88;0.90;;;;;;;;;;5007784;28;20053;-71
2022/07/05 14:33:28;;;;;;;6.47;1.33;;;;;;;;;;5022261;28;20045;-71
2022/07/05 14:35:54;;;;;;;5.90;1.70;;;;;;;;;;4986710;28;20053;-71
2022/07/05 14:38:20;;;;;;;8.75;2.78;;;;;;;;;;5024321;28;20458;-72
2022/07/05 14:40:46;;;;;;;2.65;0.80;;;;;;;;;;5006113;28;20060;-71
2022/07/05 14:43:12;;;;;;;4.78;1.30;;;;;;;;;;5024189;28;20042;-73
2022/07/05 14:45:38;;;;;;;4.75;1.42;;;;;;;;;;5002598;28;20072;-72
2022/07/05 14:48:04;;;;;;;3.90;1.23;;;;;;;;;;5004274;28;20490;-72
2022/07/05 14:50:31;;;;;;;9.48;2.70;;;;;;;;;;5008673;28;20053;-71